createdAt,value
2023-03-29T00:01:06.750Z,100415.84
2023-03-29T00:03:35.290Z,100416.38
2023-03-29T00:06:05.746Z,100417.66
2023-03-29T00:08:35.298Z,100417.16
2023-03-29T00:11:03.892Z,100421.94
2023-03-29T00:13:32.433Z,100423.22
2023-03-29T00:16:00.719Z,100417.66
2023-03-29T00:18:29.177Z,100422.41
2023-03-29T00:20:57.648Z,100428.22
2023-03-29T00:23:28.099Z,100421.34
2023-03-29T00:25:58.483Z,100432.91
2023-03-29T00:28:27.297Z,100431.22
2023-03-29T00:30:55.806Z,100433.28
2023-03-29T00:33:24.118Z,100441.22
2023-03-29T00:35:54.446Z,100443.63
2023-03-29T00:38:22.927Z,100433.84
2023-03-29T00:40:52.600Z,100441.50
2023-03-29T00:43:21.085Z,100444.66
2023-03-29T00:45:49.480Z,100438.00
2023-03-29T00:48:20.452Z,100449.09
2023-03-29T00:50:54.215Z,100447.72
2023-03-29T00:53:27.178Z,100447.72
2023-03-29T00:56:01.766Z,100449.34
2023-03-29T00:58:37.048Z,100452.19
2023-03-29T01:01:10.991Z,100460.09
2023-03-29T01:03:46.810Z,100460.84
2023-03-29T01:06:18.111Z,100461.63
2023-03-29T01:08:51.640Z,100470.09
2023-03-29T01:11:24.695Z,100462.66
2023-03-29T01:13:59.677Z,100474.06
2023-03-29T01:16:30.395Z,100468.50
2023-03-29T01:18:59.490Z,100466.94
2023-03-29T01:21:33.099Z,100471.66
2023-03-29T01:24:19.484Z,100464.25
2023-03-29T01:26:56.917Z,100467.78
2023-03-29T01:29:33.413Z,100468.31
2023-03-29T01:32:07.040Z,100471.28
2023-03-29T01:34:42.110Z,100473.63
2023-03-29T01:37:17.284Z,100481.31
2023-03-29T01:39:47.107Z,100481.31
2023-03-29T01:42:28.406Z,100490.88
2023-03-29T01:45:08.610Z,100492.72
2023-03-29T01:47:48.025Z,100491.63
2023-03-29T01:50:22.704Z,100492.47
2023-03-29T01:52:56.526Z,100492.41
2023-03-29T01:55:30.044Z,100496.81
2023-03-29T01:58:01.487Z,100504.50
2023-03-29T02:00:32.818Z,100495.03
2023-03-29T02:03:04.583Z,100490.50
2023-03-29T02:05:35.026Z,100497.03
2023-03-29T02:08:05.979Z,100503.66
2023-03-29T02:10:36.909Z,100505.81
2023-03-29T02:13:05.926Z,100506.97
2023-03-29T02:15:35.744Z,100505.00
2023-03-29T02:18:04.193Z,100501.75
2023-03-29T02:20:37.083Z,100505.72
2023-03-29T02:23:10.349Z,100500.91
2023-03-29T02:25:38.950Z,100505.88
2023-03-29T02:28:08.751Z,100514.22
2023-03-29T02:30:43.745Z,100502.06
2023-03-29T02:33:16.536Z,100504.56
2023-03-29T02:35:53.475Z,100520.84
2023-03-29T02:38:25.653Z,100518.75
2023-03-29T02:40:54.249Z,100522.00
2023-03-29T02:43:25.869Z,100524.00
2023-03-29T02:45:56.853Z,100530.94
2023-03-29T02:48:28.183Z,100528.81
2023-03-29T02:51:01.967Z,100532.41
2023-03-29T02:53:35.959Z,100532.22
2023-03-29T02:56:05.197Z,100533.53
2023-03-29T02:58:33.484Z,100544.16
2023-03-29T03:01:06.627Z,100545.69
2023-03-29T03:03:35.913Z,100547.28
2023-03-29T03:06:06.021Z,100550.69
2023-03-29T03:08:34.500Z,100540.06
2023-03-29T03:11:03.163Z,100550.03
2023-03-29T03:13:31.901Z,100562.41
2023-03-29T03:16:01.260Z,100556.06
2023-03-29T03:18:31.000Z,100567.09
2023-03-29T03:21:01.812Z,100562.59
2023-03-29T03:23:30.500Z,100558.13
2023-03-29T03:25:59.118Z,100560.94
2023-03-29T03:28:28.256Z,100559.41
2023-03-29T03:30:56.592Z,100570.25
2023-03-29T03:33:26.995Z,100563.03
2023-03-29T03:36:02.908Z,100573.00
2023-03-29T03:38:31.468Z,100566.97
2023-03-29T03:41:00.941Z,100571.75
2023-03-29T03:43:30.648Z,100569.22
2023-03-29T03:45:59.108Z,100576.91
2023-03-29T03:48:27.937Z,100575.22
2023-03-29T03:50:59.957Z,100582.81
2023-03-29T03:53:29.579Z,100578.50
2023-03-29T03:55:58.016Z,100580.97
2023-03-29T03:58:27.229Z,100580.28
2023-03-29T04:00:55.631Z,100575.78
2023-03-29T04:03:24.208Z,100579.69
2023-03-29T04:05:52.689Z,100574.97
2023-03-29T04:08:22.664Z,100573.38
2023-03-29T04:10:54.121Z,100584.75
2023-03-29T04:13:22.607Z,100581.38
2023-03-29T04:15:54.128Z,100584.56
2023-03-29T04:18:23.308Z,100586.25
2023-03-29T04:20:52.121Z,100581.13
2023-03-29T04:23:22.119Z,100583.47
2023-03-29T04:25:50.698Z,100592.00
2023-03-29T04:28:19.166Z,100584.09
2023-03-29T04:30:48.361Z,100595.00
2023-03-29T04:33:17.406Z,100604.22
2023-03-29T04:35:45.739Z,100616.59
2023-03-29T04:38:14.183Z,100614.53
2023-03-29T04:40:44.248Z,100608.38
2023-03-29T04:43:12.779Z,100619.56
2023-03-29T04:45:41.128Z,100621.88
2023-03-29T04:48:09.639Z,100627.78
2023-03-29T04:50:37.916Z,100621.78
2023-03-29T04:53:07.478Z,100631.88
2023-03-29T04:55:35.885Z,100629.56
2023-03-29T04:58:05.760Z,100634.50
2023-03-29T05:00:34.116Z,100646.13
2023-03-29T05:03:02.609Z,100644.59
2023-03-29T05:05:31.064Z,100641.16
2023-03-29T05:07:59.420Z,100647.00
2023-03-29T05:10:28.037Z,100657.81
2023-03-29T05:12:57.278Z,100655.03
2023-03-29T05:15:27.036Z,100654.25
2023-03-29T05:17:55.689Z,100661.44
2023-03-29T05:20:25.051Z,100653.69
2023-03-29T05:22:54.205Z,100655.00
2023-03-29T05:25:22.763Z,100657.31
2023-03-29T05:27:51.277Z,100650.69
2023-03-29T05:30:19.748Z,100656.84
2023-03-29T05:32:50.717Z,100668.47
2023-03-29T05:35:19.109Z,100669.16
2023-03-29T05:37:48.252Z,100671.56
2023-03-29T05:40:16.706Z,100675.81
2023-03-29T05:42:44.985Z,100677.63
2023-03-29T05:45:13.509Z,100680.03
2023-03-29T05:47:42.550Z,100685.41
2023-03-29T05:50:12.612Z,100686.22
2023-03-29T05:52:41.130Z,100690.53
2023-03-29T05:55:10.486Z,100684.97
2023-03-29T05:57:40.681Z,100688.47
2023-03-29T06:00:20.101Z,100688.53
2023-03-29T06:02:48.476Z,100698.31
2023-03-29T06:05:18.308Z,100699.44
2023-03-29T06:07:48.840Z,100693.09
2023-03-29T06:10:18.092Z,100704.88
2023-03-29T06:12:47.026Z,100703.50
2023-03-29T06:15:16.045Z,100708.78
2023-03-29T06:17:45.976Z,100710.91
2023-03-29T06:20:15.043Z,100722.25
2023-03-29T06:22:46.780Z,100719.84
2023-03-29T06:25:15.677Z,100727.31
2023-03-29T06:27:43.970Z,100729.91
2023-03-29T06:30:14.672Z,100733.84
2023-03-29T06:32:43.088Z,100735.88
2023-03-29T06:35:11.998Z,100735.84
2023-03-29T06:37:42.803Z,100740.41
2023-03-29T06:40:15.102Z,100741.38
2023-03-29T06:42:43.433Z,100744.88
2023-03-29T06:45:12.510Z,100740.72
2023-03-29T06:47:41.063Z,100740.03
2023-03-29T06:50:11.800Z,100740.66
2023-03-29T06:52:40.320Z,100749.66
2023-03-29T06:55:09.694Z,100735.56
2023-03-29T06:57:40.108Z,100749.59
2023-03-29T07:00:16.747Z,100748.97
2023-03-29T07:02:45.806Z,100749.28
2023-03-29T07:05:14.934Z,100747.66
2023-03-29T07:07:57.098Z,100746.97
2023-03-29T07:10:28.255Z,100744.72
2023-03-29T07:12:58.204Z,100755.06
2023-03-29T07:15:27.734Z,100760.56
2023-03-29T07:17:57.723Z,100756.16
2023-03-29T07:20:27.304Z,100754.66
2023-03-29T07:22:56.221Z,100765.81
2023-03-29T07:25:26.341Z,100772.72
2023-03-29T07:27:55.339Z,100776.50
2023-03-29T07:30:29.662Z,100779.38
2023-03-29T07:33:00.747Z,100784.69
2023-03-29T07:35:30.826Z,100775.38
2023-03-29T07:38:00.520Z,100785.38
2023-03-29T07:40:29.198Z,100790.03
2023-03-29T07:42:59.098Z,100779.97
2023-03-29T07:45:32.168Z,100779.69
2023-03-29T07:48:01.413Z,100784.72
2023-03-29T07:50:32.635Z,100790.63
2023-03-29T07:53:03.084Z,100789.78
2023-03-29T07:55:31.909Z,100782.22
2023-03-29T07:58:00.282Z,100784.22
2023-03-29T08:00:30.296Z,100789.00
2023-03-29T08:02:58.952Z,100782.56
2023-03-29T08:05:39.878Z,100779.25
2023-03-29T08:08:09.867Z,100784.63
2023-03-29T08:10:39.619Z,100790.75
2023-03-29T08:13:09.755Z,100794.69
2023-03-29T08:15:42.209Z,100790.78
2023-03-29T08:18:10.667Z,100785.22
2023-03-29T08:20:39.224Z,100782.06
2023-03-29T08:23:07.717Z,100784.72
2023-03-29T08:25:36.789Z,100790.25
2023-03-29T08:28:05.361Z,100781.53
2023-03-29T08:30:33.818Z,100781.72
2023-03-29T08:33:03.871Z,100782.22
2023-03-29T08:35:32.402Z,100782.72
2023-03-29T08:38:00.921Z,100779.84
2023-03-29T08:40:31.418Z,100790.72
2023-03-29T08:43:21.898Z,100779.69
2023-03-29T08:46:03.304Z,100788.13
2023-03-29T08:48:36.306Z,100792.66
2023-03-29T08:51:09.935Z,100791.41
2023-03-29T08:53:45.578Z,100786.50
2023-03-29T08:56:18.595Z,100784.94
2023-03-29T08:58:48.605Z,100783.06
2023-03-29T09:01:16.998Z,100779.66
2023-03-29T09:03:50.140Z,100782.16
2023-03-29T09:06:23.266Z,100780.81
2023-03-29T09:08:53.411Z,100783.06
2023-03-29T09:11:46.020Z,100783.84
2023-03-29T09:14:31.554Z,100790.63
2023-03-29T09:17:07.083Z,100785.31
2023-03-29T09:19:44.576Z,100791.19
2023-03-29T09:22:20.350Z,100793.03
2023-03-29T09:25:02.275Z,100796.69
2023-03-29T09:27:36.146Z,100798.03
2023-03-29T09:30:13.887Z,100790.84
2023-03-29T09:32:48.658Z,100786.16
2023-03-29T09:35:24.156Z,100791.97
2023-03-29T09:37:53.964Z,100781.00
2023-03-29T09:40:26.263Z,100789.09
2023-03-29T09:42:56.290Z,100795.50
2023-03-29T09:45:25.016Z,100800.31
2023-03-29T09:47:57.843Z,100797.25
2023-03-29T09:50:32.996Z,100797.38
2023-03-29T09:53:02.190Z,100798.56
2023-03-29T09:55:34.266Z,100798.50
2023-03-29T09:58:07.224Z,100801.66
2023-03-29T10:00:36.775Z,100794.59
2023-03-29T10:03:05.401Z,100780.28
2023-03-29T10:05:38.113Z,100801.25
2023-03-29T10:08:19.929Z,100796.19
2023-03-29T10:10:48.834Z,100798.59
2023-03-29T10:13:22.024Z,100796.72
2023-03-29T10:16:02.266Z,100795.94
2023-03-29T10:18:32.142Z,100802.72
2023-03-29T10:21:04.627Z,100800.25
2023-03-29T10:23:34.481Z,100794.59
2023-03-29T10:26:05.792Z,100794.03
2023-03-29T10:28:36.457Z,100797.75
2023-03-29T10:31:08.411Z,100792.22
2023-03-29T10:33:38.253Z,100784.19
2023-03-29T10:36:09.844Z,100790.09
2023-03-29T10:38:39.543Z,100782.56
2023-03-29T10:41:12.209Z,100783.69
2023-03-29T10:43:45.536Z,100792.16
2023-03-29T10:46:22.456Z,100800.13
2023-03-29T10:48:52.918Z,100795.66
2023-03-29T10:51:22.892Z,100791.59
2023-03-29T10:53:51.780Z,100791.34
2023-03-29T10:56:33.339Z,100789.38
2023-03-29T10:59:18.081Z,100789.94
2023-03-29T11:01:58.088Z,100775.19
2023-03-29T11:04:34.775Z,100774.69
2023-03-29T11:07:23.628Z,100770.63
2023-03-29T11:10:02.523Z,100767.19
2023-03-29T11:12:40.736Z,100771.97
2023-03-29T11:15:38.832Z,100761.97
2023-03-29T11:18:27.801Z,100765.84
2023-03-29T11:21:10.204Z,100771.69
2023-03-29T11:23:51.145Z,100776.25
2023-03-29T11:26:25.474Z,100773.91
2023-03-29T11:28:58.126Z,100782.72
2023-03-29T11:31:39.093Z,100777.75
2023-03-29T11:34:24.405Z,100799.09
2023-03-29T11:36:58.063Z,100779.91
2023-03-29T11:39:38.791Z,100773.16
2023-03-29T11:42:13.700Z,100769.13
2023-03-29T11:44:44.814Z,100773.97
2023-03-29T11:47:16.876Z,100769.16
2023-03-29T11:49:52.043Z,100770.09
2023-03-29T11:52:25.685Z,100765.72
2023-03-29T11:54:59.872Z,100758.22
2023-03-29T11:57:33.214Z,100756.28
2023-03-29T12:00:06.234Z,100746.88
2023-03-29T12:02:38.144Z,100774.16
2023-03-29T12:05:14.897Z,100767.53
2023-03-29T12:07:49.875Z,100776.53
2023-03-29T12:10:22.179Z,100777.91
2023-03-29T12:12:58.751Z,100796.38
2023-03-29T12:15:31.817Z,100800.94
2023-03-29T12:18:06.271Z,100801.50
2023-03-29T12:20:38.202Z,100799.09
2023-03-29T12:23:08.637Z,100789.13
2023-03-29T12:25:46.760Z,100786.72
2023-03-29T12:28:29.265Z,100792.09
2023-03-29T12:31:08.699Z,100796.06
2023-03-29T12:34:12.426Z,100799.28
2023-03-29T12:37:08.743Z,100823.81
2023-03-29T12:39:38.704Z,100812.81
2023-03-29T12:42:17.173Z,100818.72
2023-03-29T12:44:49.986Z,100818.78
2023-03-29T12:47:22.354Z,100824.50
2023-03-29T12:49:56.404Z,100823.50
2023-03-29T12:52:29.073Z,100832.06
2023-03-29T12:54:59.043Z,100831.34
2023-03-29T12:57:40.979Z,100837.19
2023-03-29T13:00:14.300Z,100846.63
2023-03-29T13:02:45.952Z,100854.13
2023-03-29T13:05:33.074Z,100876.22
2023-03-29T13:08:13.101Z,100869.56
2023-03-29T13:10:43.548Z,100886.59
2023-03-29T13:13:19.749Z,100893.63
2023-03-29T13:15:49.211Z,100904.94
2023-03-29T13:18:38.086Z,100918.22
2023-03-29T13:21:17.294Z,100910.34
2023-03-29T13:23:56.037Z,100907.53
2023-03-29T13:26:42.767Z,100893.00
2023-03-29T13:29:25.532Z,100900.94
2023-03-29T13:32:03.226Z,100899.50
2023-03-29T13:34:43.202Z,100894.13
2023-03-29T13:37:28.745Z,100891.00
2023-03-29T13:39:57.798Z,100895.09
2023-03-29T13:42:39.067Z,100887.06
2023-03-29T13:45:17.426Z,100887.63
2023-03-29T13:47:58.793Z,100880.13
2023-03-29T13:50:38.399Z,100877.19
2023-03-29T13:53:14.244Z,100881.66
2023-03-29T13:55:49.824Z,100880.66
2023-03-29T13:58:31.701Z,100880.22
2023-03-29T14:01:08.702Z,100890.00
2023-03-29T14:03:44.896Z,100883.84
2023-03-29T14:06:15.786Z,100894.31
2023-03-29T14:08:45.913Z,100880.56
2023-03-29T14:11:23.231Z,100885.50
2023-03-29T14:13:54.770Z,100896.97
2023-03-29T14:16:28.591Z,100905.75
2023-03-29T14:19:00.448Z,100911.41
2023-03-29T14:21:28.902Z,100908.44
2023-03-29T14:24:01.600Z,100914.50
2023-03-29T14:26:33.379Z,100910.06
2023-03-29T14:29:03.042Z,100908.00
2023-03-29T14:31:34.583Z,100909.00
2023-03-29T14:34:05.167Z,100908.38
2023-03-29T14:36:35.032Z,100909.69
2023-03-29T14:39:06.875Z,100904.97
2023-03-29T14:41:38.229Z,100913.78
2023-03-29T14:44:08.099Z,100912.13
2023-03-29T14:46:38.391Z,100910.34
2023-03-29T14:49:07.456Z,100915.16
2023-03-29T14:51:37.086Z,100915.09
2023-03-29T14:54:07.029Z,100921.22
2023-03-29T14:56:35.713Z,100918.31
2023-03-29T14:59:06.229Z,100920.63
2023-03-29T15:01:34.631Z,100931.50
2023-03-29T15:04:07.556Z,100930.94
2023-03-29T15:06:41.774Z,100923.09
2023-03-29T15:09:17.452Z,100919.06
2023-03-29T15:11:53.795Z,100924.16
2023-03-29T15:14:23.743Z,100929.16
2023-03-29T15:16:54.072Z,100929.03
2023-03-29T15:19:27.371Z,100928.47
2023-03-29T15:21:55.840Z,100924.06
2023-03-29T15:24:29.585Z,100928.88
2023-03-29T15:27:04.425Z,100928.75
2023-03-29T15:29:40.280Z,100929.94
2023-03-29T15:32:09.216Z,100930.50
2023-03-29T15:34:39.576Z,100927.06
2023-03-29T15:37:08.151Z,100931.72
2023-03-29T15:39:40.074Z,100935.25
2023-03-29T15:42:10.297Z,100937.03
2023-03-29T15:44:41.300Z,100941.84
2023-03-29T15:47:11.084Z,100945.22
2023-03-29T15:49:41.288Z,100945.16
2023-03-29T15:52:09.799Z,100950.03
2023-03-29T15:54:38.145Z,100952.91
2023-03-29T15:57:08.838Z,100954.63
2023-03-29T15:59:37.711Z,100955.91
2023-03-29T16:02:07.857Z,100959.81
2023-03-29T16:04:36.312Z,100961.78
2023-03-29T16:07:08.814Z,100965.13
2023-03-29T16:09:37.125Z,100975.09
2023-03-29T16:12:06.011Z,100970.88
2023-03-29T16:14:34.486Z,100970.22
2023-03-29T16:17:04.056Z,100978.75
2023-03-29T16:19:33.341Z,100986.22
2023-03-29T16:22:03.489Z,100984.72
2023-03-29T16:24:34.676Z,100994.16
2023-03-29T16:27:04.183Z,101000.59
2023-03-29T16:29:32.847Z,101006.56
2023-03-29T16:32:02.159Z,101022.44
2023-03-29T16:34:31.397Z,101007.00
2023-03-29T16:36:59.820Z,101004.34
2023-03-29T16:39:28.349Z,101006.25
2023-03-29T16:41:58.116Z,101004.56
2023-03-29T16:44:28.017Z,101001.69
2023-03-29T16:46:58.228Z,101005.25
2023-03-29T16:49:26.995Z,101010.91
2023-03-29T16:51:56.183Z,101001.03
2023-03-29T16:54:25.785Z,101001.03
2023-03-29T16:56:54.376Z,101010.66
2023-03-29T16:59:24.346Z,101019.72
2023-03-29T17:01:52.762Z,101019.69
2023-03-29T17:04:21.323Z,101025.44
2023-03-29T17:06:50.012Z,101025.88
2023-03-29T17:09:18.308Z,101029.09
2023-03-29T17:11:46.956Z,101031.47
2023-03-29T17:14:15.539Z,101036.97
2023-03-29T17:16:46.340Z,101041.91
2023-03-29T17:19:14.777Z,101040.44
2023-03-29T17:21:43.923Z,101037.47
2023-03-29T17:24:12.402Z,101051.22
2023-03-29T17:26:42.155Z,101053.28
2023-03-29T17:29:11.584Z,101060.16
2023-03-29T17:31:47.356Z,101063.66
2023-03-29T17:34:17.813Z,101065.28
2023-03-29T17:36:47.008Z,101060.66
2023-03-29T17:39:18.830Z,101061.16
2023-03-29T17:41:49.739Z,101061.38
2023-03-29T17:44:18.093Z,101065.66
2023-03-29T17:46:46.812Z,101054.41
2023-03-29T17:49:16.842Z,101069.75
2023-03-29T17:51:45.234Z,101066.72
2023-03-29T17:54:13.852Z,101074.31
2023-03-29T17:56:42.282Z,101077.59
2023-03-29T17:59:10.715Z,101077.59
2023-03-29T18:01:39.523Z,101079.06
2023-03-29T18:04:08.475Z,101087.28
2023-03-29T18:06:38.272Z,101088.16
2023-03-29T18:09:06.636Z,101087.59
2023-03-29T18:11:36.516Z,101090.22
2023-03-29T18:14:05.575Z,101096.97
2023-03-29T18:16:34.184Z,101100.03
2023-03-29T18:19:02.686Z,101096.44
2023-03-29T18:21:31.094Z,101100.94
2023-03-29T18:24:00.914Z,101097.25
2023-03-29T18:26:29.926Z,101104.66
2023-03-29T18:28:58.315Z,101102.16
2023-03-29T18:31:28.145Z,101096.75
2023-03-29T18:33:56.588Z,101106.94
2023-03-29T18:36:26.246Z,101110.22
2023-03-29T18:38:55.962Z,101109.13
2023-03-29T18:41:26.701Z,101105.09
2023-03-29T18:43:57.464Z,101110.72
2023-03-29T18:46:25.944Z,101111.25
2023-03-29T18:48:54.639Z,101112.22
2023-03-29T18:51:23.488Z,101111.03
2023-03-29T18:53:52.053Z,101119.53
2023-03-29T18:56:20.528Z,101114.13
2023-03-29T18:58:50.279Z,101118.34
2023-03-29T19:01:18.753Z,101115.44
2023-03-29T19:03:48.198Z,101114.19
2023-03-29T19:06:16.772Z,101108.38
2023-03-29T19:08:45.155Z,101105.50
2023-03-29T19:11:15.535Z,101110.50
2023-03-29T19:13:46.422Z,101109.13
2023-03-29T19:16:16.432Z,101104.00
2023-03-29T19:18:44.775Z,101099.59
2023-03-29T19:21:13.458Z,101092.34
2023-03-29T19:23:42.084Z,101107.78
2023-03-29T19:26:11.755Z,101117.25
2023-03-29T19:28:40.788Z,101115.56
2023-03-29T19:31:09.322Z,101118.44
2023-03-29T19:33:39.802Z,101121.41
2023-03-29T19:36:08.484Z,101116.81
2023-03-29T19:38:37.481Z,101126.41
2023-03-29T19:41:09.108Z,101132.84
2023-03-29T19:43:37.414Z,101132.50
2023-03-29T19:46:11.146Z,101133.50
2023-03-29T19:48:41.344Z,101123.69
2023-03-29T19:51:09.774Z,101134.69
2023-03-29T19:53:39.008Z,101120.84
2023-03-29T19:56:07.889Z,101133.91
2023-03-29T19:58:36.345Z,101129.50
2023-03-29T20:01:06.166Z,101129.56
2023-03-29T20:03:36.204Z,101136.66
2023-03-29T20:06:06.555Z,101144.56
2023-03-29T20:08:38.912Z,101134.91
2023-03-29T20:11:10.312Z,101145.44
2023-03-29T20:13:39.781Z,101142.59
2023-03-29T20:16:09.087Z,101134.91
2023-03-29T20:18:38.887Z,101133.28
2023-03-29T20:21:09.932Z,101139.44
2023-03-29T20:23:38.992Z,101137.88
2023-03-29T20:26:07.834Z,101138.34
2023-03-29T20:28:37.822Z,101141.69
2023-03-29T20:31:07.452Z,101136.25
2023-03-29T20:33:35.916Z,101146.22
2023-03-29T20:36:04.970Z,101133.69
2023-03-29T20:38:35.084Z,101136.53
2023-03-29T20:41:04.323Z,101138.94
2023-03-29T20:43:37.524Z,101136.97
2023-03-29T20:46:14.487Z,101136.97
2023-03-29T20:48:45.968Z,101129.19
2023-03-29T20:51:14.643Z,101129.09
2023-03-29T20:53:44.531Z,101135.94
2023-03-29T20:56:13.185Z,101127.00
2023-03-29T20:58:42.287Z,101126.56
2023-03-29T21:01:14.325Z,101119.91
2023-03-29T21:03:43.437Z,101124.22
2023-03-29T21:06:14.136Z,101125.47
2023-03-29T21:08:45.996Z,101126.03
2023-03-29T21:11:16.426Z,101122.97
2023-03-29T21:13:45.206Z,101135.25
2023-03-29T21:16:14.431Z,101126.78
2023-03-29T21:18:43.499Z,101124.22
2023-03-29T21:21:13.477Z,101126.19
2023-03-29T21:23:43.595Z,101116.22
2023-03-29T21:26:11.938Z,101122.31
2023-03-29T21:28:41.130Z,101131.03
2023-03-29T21:31:10.192Z,101132.56
2023-03-29T21:33:38.695Z,101130.69
2023-03-29T21:36:08.340Z,101134.03
2023-03-29T21:38:36.881Z,101137.25
2023-03-29T21:41:12.159Z,101139.31
2023-03-29T21:43:40.850Z,101140.34
2023-03-29T21:46:10.296Z,101138.50
2023-03-29T21:48:38.758Z,101140.69
2023-03-29T21:51:07.544Z,101145.19
2023-03-29T21:53:36.459Z,101138.28
2023-03-29T21:56:05.074Z,101145.53
2023-03-29T21:58:34.942Z,101134.09
2023-03-29T22:01:05.333Z,101148.06
2023-03-29T22:03:34.028Z,101151.53
2023-03-29T22:06:03.740Z,101150.44
2023-03-29T22:08:33.145Z,101156.28
2023-03-29T22:11:08.270Z,101164.66
2023-03-29T22:13:38.949Z,101157.56
2023-03-29T22:16:08.552Z,101153.75
2023-03-29T22:18:43.793Z,101157.41
2023-03-29T22:21:15.288Z,101154.19
2023-03-29T22:23:44.832Z,101161.09
2023-03-29T22:26:14.959Z,101162.00
2023-03-29T22:28:45.925Z,101158.13
2023-03-29T22:31:16.618Z,101158.00
2023-03-29T22:33:45.669Z,101155.88
2023-03-29T22:36:16.866Z,101154.78
2023-03-29T22:38:46.396Z,101158.50
2023-03-29T22:41:15.542Z,101157.09
2023-03-29T22:43:45.703Z,101156.97
2023-03-29T22:46:15.242Z,101154.13
2023-03-29T22:48:43.783Z,101151.69
2023-03-29T22:51:12.198Z,101146.53
2023-03-29T22:53:40.961Z,101150.72
2023-03-29T22:56:10.134Z,101147.50
2023-03-29T22:58:38.828Z,101150.22
2023-03-29T23:01:09.117Z,101139.69
2023-03-29T23:03:37.611Z,101133.22
2023-03-29T23:06:06.891Z,101135.88
2023-03-29T23:08:36.315Z,101137.75
2023-03-29T23:11:07.438Z,101133.94
2023-03-29T23:13:36.801Z,101139.44
2023-03-29T23:16:05.527Z,101134.56
2023-03-29T23:18:37.549Z,101133.66
2023-03-29T23:21:09.023Z,101136.09
2023-03-29T23:23:37.563Z,101136.31
2023-03-29T23:26:06.910Z,101133.00
2023-03-29T23:28:35.534Z,101131.38
2023-03-29T23:31:07.079Z,101139.75
2023-03-29T23:33:38.692Z,101136.97
2023-03-29T23:36:09.578Z,101128.63
2023-03-29T23:38:40.282Z,101127.16
2023-03-29T23:41:10.765Z,101128.31
2023-03-29T23:43:41.288Z,101123.63
2023-03-29T23:46:11.841Z,101120.84
2023-03-29T23:48:41.660Z,101111.31
2023-03-29T23:51:10.136Z,101114.41
2023-03-29T23:53:38.527Z,101115.47
2023-03-29T23:56:07.815Z,101113.94
2023-03-29T23:58:38.166Z,101115.66
